createdAt,value
2018-05-12T00:00:48.477Z,999.88
2018-05-12T00:03:19.887Z,999.84
2018-05-12T00:05:51.457Z,999.86
2018-05-12T00:08:22.799Z,999.87
2018-05-12T00:10:54.682Z,999.89
2018-05-12T00:13:26.123Z,999.92
2018-05-12T00:15:57.566Z,999.88
2018-05-12T00:18:29.128Z,999.91
2018-05-12T00:21:00.881Z,999.89
2018-05-12T00:23:32.356Z,999.94
2018-05-12T00:26:03.753Z,999.94
2018-05-12T00:28:35.647Z,999.84
2018-05-12T00:31:07.080Z,999.85
2018-05-12T00:33:38.781Z,999.84
2018-05-12T00:36:10.183Z,999.80
2018-05-12T00:38:41.672Z,999.79
2018-05-12T00:41:13.526Z,999.81
2018-05-12T00:43:45.084Z,999.82
2018-05-12T00:46:16.601Z,999.84
2018-05-12T00:48:49.429Z,999.79
2018-05-12T00:51:20.963Z,999.82
2018-05-12T00:53:52.423Z,999.80
2018-05-12T00:56:24.399Z,999.76
2018-05-12T00:58:55.812Z,999.74
2018-05-12T01:01:27.312Z,999.71
2018-05-12T01:03:58.719Z,999.71
2018-05-12T01:06:30.303Z,999.71
2018-05-12T01:09:02.141Z,999.69
2018-05-12T01:11:33.736Z,999.67
2018-05-12T01:14:05.178Z,999.69
2018-05-12T01:16:36.711Z,999.67
2018-05-12T01:19:08.175Z,999.66
2018-05-12T01:21:39.998Z,999.62
2018-05-12T01:24:11.487Z,999.62
2018-05-12T01:26:42.944Z,999.51
2018-05-12T01:29:14.873Z,999.57
2018-05-12T01:31:46.355Z,999.55
2018-05-12T01:34:18.832Z,999.60
2018-05-12T01:36:50.337Z,999.46
2018-05-12T01:39:22.449Z,999.49
2018-05-12T01:41:53.889Z,999.49
2018-05-12T01:44:25.446Z,999.43
2018-05-12T01:46:57.264Z,999.42
2018-05-12T01:49:28.757Z,999.42
2018-05-12T01:52:00.172Z,999.41
2018-05-12T01:54:31.661Z,999.47
2018-05-12T01:57:03.200Z,999.48
2018-05-12T01:59:35.145Z,999.47
2018-05-12T02:02:06.615Z,999.50
2018-05-12T02:04:38.088Z,999.45
2018-05-12T02:07:09.538Z,999.48
2018-05-12T02:09:40.944Z,999.46
2018-05-12T02:12:12.839Z,999.46
2018-05-12T02:14:44.459Z,999.45
2018-05-12T02:17:15.941Z,999.44
2018-05-12T02:19:47.369Z,999.48
2018-05-12T02:22:19.209Z,999.47
2018-05-12T02:24:50.997Z,999.56
2018-05-12T02:27:22.605Z,999.53
2018-05-12T02:29:54.193Z,999.50
2018-05-12T02:32:25.771Z,999.50
2018-05-12T02:34:57.234Z,999.51
2018-05-12T02:37:28.976Z,999.51
2018-05-12T02:40:00.414Z,999.51
2018-05-12T02:42:31.994Z,999.54
2018-05-12T02:45:05.322Z,999.54
2018-05-12T02:47:36.736Z,999.56
2018-05-12T02:50:08.334Z,999.53
2018-05-12T02:52:40.165Z,999.55
2018-05-12T02:55:11.711Z,999.56
2018-05-12T02:57:43.219Z,999.53
2018-05-12T03:00:17.174Z,999.53
2018-05-12T03:02:48.600Z,999.54
2018-05-12T03:05:20.169Z,999.49
2018-05-12T03:07:52.129Z,999.50
2018-05-12T03:10:23.676Z,999.53
2018-05-12T03:12:55.091Z,999.51
2018-05-12T03:15:27.011Z,999.60
2018-05-12T03:17:59.047Z,999.60
2018-05-12T03:20:30.527Z,999.58
2018-05-12T03:23:01.954Z,999.56
2018-05-12T03:25:33.514Z,999.58
2018-05-12T03:28:04.980Z,999.61
2018-05-12T03:30:36.840Z,999.53
2018-05-12T03:33:08.360Z,999.55
2018-05-12T03:35:39.948Z,999.56
2018-05-12T03:38:11.399Z,999.54
2018-05-12T03:40:42.954Z,999.53
2018-05-12T03:43:14.340Z,999.59
2018-05-12T03:45:46.269Z,999.60
2018-05-12T03:48:17.684Z,999.60
2018-05-12T03:50:49.142Z,999.62
2018-05-12T03:53:20.594Z,999.62
2018-05-12T03:55:52.467Z,999.59
2018-05-12T03:58:24.050Z,999.60
2018-05-12T04:00:55.593Z,999.66
2018-05-12T04:03:27.034Z,999.59
2018-05-12T04:06:53.066Z,999.63
2018-05-12T04:10:05.337Z,999.67
2018-05-12T04:12:37.329Z,999.74
2018-05-12T04:15:09.239Z,999.74
2018-05-12T04:17:40.761Z,999.72
2018-05-12T04:20:12.227Z,999.69
2018-05-12T04:22:43.722Z,999.74
2018-05-12T04:25:15.591Z,999.69
2018-05-12T04:27:47.083Z,999.73
2018-05-12T04:30:18.653Z,999.69
2018-05-12T04:32:50.239Z,999.69
2018-05-12T04:35:21.744Z,999.67
2018-05-12T04:37:53.269Z,999.64
2018-05-12T04:40:25.515Z,999.59
2018-05-12T04:42:57.018Z,999.59
2018-05-12T04:45:29.436Z,999.62
2018-05-12T04:48:02.232Z,999.66
2018-05-12T04:50:33.568Z,999.65
2018-05-12T04:53:05.057Z,999.59
2018-05-12T04:55:36.508Z,999.62
2018-05-12T04:58:07.963Z,999.61
2018-05-12T05:00:39.820Z,999.57
2018-05-12T05:03:11.354Z,999.61
2018-05-12T05:05:42.902Z,999.63
2018-05-12T05:08:14.353Z,999.61
2018-05-12T05:10:45.861Z,999.60
2018-05-12T05:13:17.808Z,999.69
2018-05-12T05:15:49.405Z,999.66
2018-05-12T05:18:21.012Z,999.65
2018-05-12T05:20:52.820Z,999.69
2018-05-12T05:23:24.331Z,999.68
2018-05-12T05:25:55.841Z,999.68
2018-05-12T05:28:27.415Z,999.66
2018-05-12T05:30:58.851Z,999.73
2018-05-12T05:33:30.365Z,999.73
2018-05-12T05:36:02.351Z,999.74
2018-05-12T05:38:33.833Z,999.76
2018-05-12T05:41:05.493Z,999.76
2018-05-12T05:43:36.975Z,999.70
2018-05-12T05:46:08.882Z,999.73
2018-05-12T05:48:40.555Z,999.75
2018-05-12T05:51:11.998Z,999.70
2018-05-12T05:53:43.460Z,999.69
2018-05-12T05:56:14.903Z,999.77
2018-05-12T05:58:46.370Z,999.71
2018-05-12T06:01:18.452Z,999.74
2018-05-12T06:03:49.883Z,999.76
2018-05-12T06:06:21.439Z,999.80
2018-05-12T06:08:52.897Z,999.81
2018-05-12T06:11:24.307Z,999.80
2018-05-12T06:13:55.898Z,999.77
2018-05-12T06:16:27.399Z,999.73
2018-05-12T06:18:59.415Z,999.71
2018-05-12T06:21:30.886Z,999.73
2018-05-12T06:24:02.379Z,999.70
2018-05-12T06:26:34.451Z,999.76
2018-05-12T06:29:05.957Z,999.68
2018-05-12T06:31:38.007Z,999.78
2018-05-12T06:34:09.518Z,999.76
2018-05-12T06:36:41.134Z,999.77
2018-05-12T06:39:13.381Z,999.78
2018-05-12T06:41:45.099Z,999.76
2018-05-12T06:44:17.026Z,999.80
2018-05-12T06:46:48.558Z,999.78
2018-05-12T06:49:20.016Z,999.81
2018-05-12T06:51:52.095Z,999.75
2018-05-12T06:54:24.206Z,999.82
2018-05-12T06:56:55.750Z,999.80
2018-05-12T06:59:27.688Z,999.76
2018-05-12T07:01:59.177Z,999.78
2018-05-12T07:04:30.673Z,999.73
2018-05-12T07:07:02.257Z,999.73
2018-05-12T07:09:34.028Z,999.74
2018-05-12T07:12:05.473Z,999.67
2018-05-12T07:14:37.531Z,999.70
2018-05-12T07:17:09.045Z,999.68
2018-05-12T07:19:40.603Z,999.65
2018-05-12T07:22:40.219Z,999.66
2018-05-12T07:25:11.845Z,999.67
2018-05-12T07:27:43.431Z,999.66
2018-05-12T07:30:18.921Z,999.67
2018-05-12T07:32:50.846Z,999.66
2018-05-12T07:35:22.471Z,999.61
2018-05-12T07:37:54.422Z,999.56
2018-05-12T07:40:25.902Z,999.60
2018-05-12T07:42:57.338Z,999.64
2018-05-12T07:45:29.093Z,999.64
2018-05-12T07:48:01.264Z,999.59
2018-05-12T07:50:32.732Z,999.61
2018-05-12T07:53:04.191Z,999.63
2018-05-12T07:55:35.655Z,999.63
2018-05-12T07:58:07.258Z,999.66
2018-05-12T08:00:41.231Z,999.59
2018-05-12T08:03:12.929Z,999.57
2018-05-12T08:05:52.204Z,999.58
2018-05-12T08:08:23.686Z,999.60
2018-05-12T08:10:55.209Z,999.52
2018-05-12T08:13:26.935Z,999.50
2018-05-12T08:15:58.568Z,999.47
2018-05-12T08:18:32.128Z,999.44
2018-05-12T08:21:07.715Z,999.44
2018-05-12T08:23:39.222Z,999.42
2018-05-12T08:26:11.487Z,999.38
2018-05-12T08:28:43.235Z,999.40
2018-05-12T08:31:14.659Z,999.34
2018-05-12T08:33:46.262Z,999.25
2018-05-12T08:36:17.810Z,999.28
2018-05-12T08:38:49.228Z,999.27
2018-05-12T08:41:20.822Z,999.26
2018-05-12T08:43:53.844Z,999.21
2018-05-12T08:46:25.499Z,999.26
2018-05-12T08:48:56.964Z,999.30
2018-05-12T08:51:28.633Z,999.27
2018-05-12T08:54:00.220Z,999.23
2018-05-12T08:56:32.157Z,999.16
2018-05-12T08:59:03.705Z,999.21
2018-05-12T09:01:35.320Z,999.14
2018-05-12T09:04:07.300Z,999.12
2018-05-12T09:06:38.975Z,999.13
2018-05-12T09:09:10.531Z,999.18
2018-05-12T09:11:42.124Z,999.13
2018-05-12T09:14:13.646Z,999.07
2018-05-12T09:16:45.141Z,999.06
2018-05-12T09:19:18.184Z,999.10
2018-05-12T09:21:50.030Z,999.07
2018-05-12T09:24:21.656Z,999.08
2018-05-12T09:26:53.488Z,999.03
2018-05-12T09:29:24.957Z,999.09
2018-05-12T09:32:01.692Z,999.07
2018-05-12T09:34:36.951Z,998.96
2018-05-12T09:37:08.106Z,998.94
2018-05-12T09:39:39.723Z,998.92
2018-05-12T09:42:11.599Z,998.89
2018-05-12T09:44:42.944Z,998.87
2018-05-12T09:47:14.437Z,998.79
2018-05-12T09:49:46.508Z,998.76
2018-05-12T09:52:18.177Z,998.76
2018-05-12T09:54:49.679Z,998.66
2018-05-12T09:57:21.542Z,998.70
2018-05-12T09:59:53.007Z,998.66
2018-05-12T10:02:24.576Z,998.65
2018-05-12T10:05:00.019Z,998.58
2018-05-12T10:07:34.715Z,998.61
2018-05-12T10:10:06.041Z,998.57
2018-05-12T10:12:38.736Z,998.55
2018-05-12T10:15:12.259Z,998.52
2018-05-12T10:17:42.823Z,998.51
2018-05-12T10:20:16.593Z,998.49
2018-05-12T10:22:48.949Z,998.51
2018-05-12T10:25:20.494Z,998.50
2018-05-12T10:27:55.122Z,998.44
2018-05-12T10:30:26.760Z,998.41
2018-05-12T10:32:58.301Z,998.36
2018-05-12T10:35:30.291Z,998.42
2018-05-12T10:38:01.884Z,998.37
2018-05-12T10:40:33.763Z,998.38
2018-05-12T10:43:05.377Z,998.28
2018-05-12T10:45:37.949Z,998.32
2018-05-12T10:48:09.735Z,998.32
2018-05-12T10:50:41.801Z,998.32
2018-05-12T10:53:13.336Z,998.26
2018-05-12T10:55:44.785Z,998.22
2018-05-12T10:58:16.434Z,998.19
2018-05-12T11:00:47.932Z,998.15
2018-05-12T11:03:19.817Z,998.11
2018-05-12T11:05:51.563Z,998.06
2018-05-12T11:08:23.065Z,998.06
2018-05-12T11:10:54.968Z,998.02
2018-05-12T11:13:26.573Z,997.90
2018-05-12T11:15:58.160Z,997.94
2018-05-12T11:18:29.569Z,997.90
2018-05-12T11:21:01.053Z,997.84
2018-05-12T11:23:32.945Z,997.85
2018-05-12T11:26:05.208Z,997.81
2018-05-12T11:28:38.905Z,997.85
2018-05-12T11:31:11.764Z,997.87
2018-05-12T11:33:44.170Z,997.85
2018-05-12T11:36:15.750Z,997.80
2018-05-12T11:38:47.410Z,997.74
2018-05-12T11:41:20.361Z,997.71
2018-05-12T11:43:52.244Z,997.66
2018-05-12T11:46:23.819Z,997.60
2018-05-12T11:48:55.820Z,997.61
2018-05-12T11:51:28.107Z,997.56
2018-05-12T11:53:59.604Z,997.56
2018-05-12T11:56:32.755Z,997.62
2018-05-12T11:59:04.757Z,997.54
2018-05-12T12:01:37.133Z,997.50
2018-05-12T12:04:08.707Z,997.46
2018-05-12T12:06:40.911Z,997.44
2018-05-12T12:09:12.616Z,997.41
2018-05-12T12:11:44.111Z,997.44
2018-05-12T12:14:15.633Z,997.48
2018-05-12T12:16:47.598Z,997.52
2018-05-12T12:19:19.454Z,997.51
2018-05-12T12:21:51.051Z,997.46
2018-05-12T12:24:22.603Z,997.41
2018-05-12T12:26:54.457Z,997.43
2018-05-12T12:29:26.508Z,997.36
2018-05-12T12:31:58.073Z,997.35
2018-05-12T12:34:29.656Z,997.34
2018-05-12T12:37:01.322Z,997.34
2018-05-12T12:39:32.886Z,997.27
2018-05-12T12:42:04.538Z,997.28
2018-05-12T12:44:36.788Z,997.21
2018-05-12T12:47:08.472Z,997.15
2018-05-12T12:49:40.478Z,997.19
2018-05-12T12:52:12.395Z,997.16
2018-05-12T12:54:43.980Z,997.10
2018-05-12T12:57:15.409Z,997.07
2018-05-12T12:59:50.109Z,997.04
2018-05-12T13:02:21.695Z,997.03
2018-05-12T13:04:53.264Z,997.03
2018-05-12T13:07:24.730Z,996.99
2018-05-12T13:09:56.434Z,996.93
2018-05-12T13:12:28.774Z,996.88
2018-05-12T13:15:00.485Z,996.85
2018-05-12T13:17:32.034Z,996.78
2018-05-12T13:20:03.563Z,996.80
2018-05-12T13:22:36.279Z,996.77
2018-05-12T13:25:07.782Z,996.75
2018-05-12T13:27:41.106Z,996.69
2018-05-12T13:30:15.103Z,996.66
2018-05-12T13:32:46.581Z,996.62
2018-05-12T13:35:18.280Z,996.67
2018-05-12T13:37:50.289Z,996.58
2018-05-12T13:40:21.849Z,996.57
2018-05-12T13:42:53.492Z,996.52
2018-05-12T13:45:25.011Z,996.53
2018-05-12T13:47:57.068Z,996.45
2018-05-12T13:50:28.478Z,996.43
2018-05-12T13:53:00.119Z,996.44
2018-05-12T13:55:31.678Z,996.41
2018-05-12T13:58:03.953Z,996.42
2018-05-12T14:00:35.563Z,996.31
2018-05-12T14:03:07.713Z,996.34
2018-05-12T14:05:41.203Z,996.26
2018-05-12T14:08:12.687Z,996.30
2018-05-12T14:10:45.320Z,996.31
2018-05-12T14:13:16.896Z,996.32
2018-05-12T14:15:48.385Z,996.31
2018-05-12T14:18:20.405Z,996.25
2018-05-12T14:20:51.851Z,996.24
2018-05-12T14:23:23.323Z,996.23
2018-05-12T14:25:55.257Z,996.23
2018-05-12T14:28:26.686Z,996.22
2018-05-12T14:30:58.195Z,996.20
2018-05-12T14:33:29.864Z,996.13
2018-05-12T14:36:01.475Z,996.09
2018-05-12T14:38:32.939Z,996.02
2018-05-12T14:41:04.798Z,996.04
2018-05-12T14:43:36.563Z,996.04
2018-05-12T14:46:07.971Z,996.04
2018-05-12T14:48:41.248Z,996.01
2018-05-12T14:51:13.721Z,995.97
2018-05-12T14:53:45.539Z,995.99
2018-05-12T14:56:17.580Z,995.98
2018-05-12T14:58:49.053Z,996.03
2018-05-12T15:01:20.487Z,996.03
2018-05-12T15:03:52.466Z,995.99
2018-05-12T15:06:23.909Z,995.97
2018-05-12T15:08:55.406Z,996.01
2018-05-12T15:11:26.913Z,995.94
2018-05-12T15:13:58.451Z,995.88
2018-05-12T15:16:30.024Z,995.88
2018-05-12T15:19:01.896Z,995.88
2018-05-12T15:21:33.455Z,995.84
2018-05-12T15:24:05.052Z,995.83
2018-05-12T15:26:36.786Z,995.80
2018-05-12T15:29:08.771Z,995.73
2018-05-12T15:31:42.229Z,995.74
2018-05-12T15:34:14.565Z,995.75
2018-05-12T15:36:46.562Z,995.75
2018-05-12T15:39:18.828Z,995.70
2018-05-12T15:41:50.244Z,995.65
2018-05-12T15:44:21.715Z,995.64
2018-05-12T15:46:53.698Z,995.61
2018-05-12T15:49:25.941Z,995.55
2018-05-12T15:51:57.997Z,995.52
2018-05-12T15:54:31.110Z,995.56
2018-05-12T15:57:02.695Z,995.55
2018-05-12T15:59:34.233Z,995.49
2018-05-12T16:02:05.663Z,995.44
2018-05-12T16:04:38.823Z,995.41
2018-05-12T16:07:10.299Z,995.40
2018-05-12T16:09:41.972Z,995.38
2018-05-12T16:12:13.895Z,995.38
2018-05-12T16:14:45.437Z,995.33
2018-05-12T16:17:17.018Z,995.28
2018-05-12T16:19:48.720Z,995.24
2018-05-12T16:22:20.286Z,995.24
2018-05-12T16:24:51.847Z,995.28
2018-05-12T16:27:23.335Z,995.20
2018-05-12T16:29:54.821Z,995.22
2018-05-12T16:32:26.366Z,995.22
2018-05-12T16:34:59.630Z,995.17
2018-05-12T16:37:31.118Z,995.17
2018-05-12T16:40:02.755Z,995.07
2018-05-12T16:42:34.234Z,995.05
2018-05-12T16:45:07.169Z,995.00
2018-05-12T16:47:38.718Z,994.98
2018-05-12T16:50:10.545Z,995.00
2018-05-12T16:52:42.366Z,994.98
2018-05-12T16:55:13.835Z,995.01
2018-05-12T16:57:45.528Z,994.96
2018-05-12T17:00:18.120Z,994.95
2018-05-12T17:02:49.654Z,994.98
2018-05-12T17:05:21.255Z,994.96
2018-05-12T17:07:53.233Z,994.94
2018-05-12T17:10:24.655Z,994.91
2018-05-12T17:12:56.158Z,994.85
2018-05-12T17:15:28.185Z,994.86
2018-05-12T17:17:59.880Z,994.85
2018-05-12T17:20:31.387Z,994.82
2018-05-12T17:23:02.944Z,994.83
2018-05-12T17:25:35.192Z,994.83
2018-05-12T17:28:05.955Z,994.79
2018-05-12T17:30:38.047Z,994.83
2018-05-12T17:33:09.757Z,994.77
2018-05-12T17:35:41.435Z,994.81
2018-05-12T17:38:12.854Z,994.74
2018-05-12T17:40:44.496Z,994.76
2018-05-12T17:43:16.003Z,994.77
2018-05-12T17:45:48.117Z,994.74
2018-05-12T17:48:19.668Z,994.73
2018-05-12T17:50:51.188Z,994.68
2018-05-12T17:53:22.859Z,994.66
2018-05-12T17:55:55.349Z,994.69
2018-05-12T17:58:26.882Z,994.65
2018-05-12T18:00:58.668Z,994.67
2018-05-12T18:03:31.841Z,994.67
2018-05-12T18:06:03.707Z,994.60
2018-05-12T18:08:35.266Z,994.62
2018-05-12T18:11:07.117Z,994.58
2018-05-12T18:13:38.752Z,994.58
2018-05-12T18:16:10.304Z,994.58
2018-05-12T18:18:42.702Z,994.55
2018-05-12T18:21:15.124Z,994.55
2018-05-12T18:23:47.042Z,994.55
2018-05-12T18:26:19.255Z,994.53
2018-05-12T18:28:51.075Z,994.51
2018-05-12T18:31:22.693Z,994.58
2018-05-12T18:33:54.580Z,994.56
2018-05-12T18:36:27.100Z,994.56
2018-05-12T18:38:58.676Z,994.60
2018-05-12T18:41:30.603Z,994.62
2018-05-12T18:44:02.096Z,994.65
2018-05-12T18:46:33.710Z,994.67
2018-05-12T18:49:05.605Z,994.62
2018-05-12T18:51:37.193Z,994.63
2018-05-12T18:54:08.709Z,994.68
2018-05-12T18:56:40.762Z,994.68
2018-05-12T18:59:12.319Z,994.72
2018-05-12T19:01:43.986Z,994.69
2018-05-12T19:04:15.559Z,994.72
2018-05-12T19:06:47.304Z,994.69
2018-05-12T19:09:18.967Z,994.71
2018-05-12T19:11:51.071Z,994.70
2018-05-12T19:14:22.571Z,994.66
2018-05-12T19:16:54.143Z,994.67
2018-05-12T19:19:25.905Z,994.68
2018-05-12T19:21:57.469Z,994.71
2018-05-12T19:24:29.027Z,994.74
2018-05-12T19:27:00.679Z,994.76
2018-05-12T19:29:32.224Z,994.73
2018-05-12T19:32:04.065Z,994.75
2018-05-12T19:34:35.574Z,994.71
2018-05-12T19:37:07.069Z,994.70
2018-05-12T19:39:38.511Z,994.65
2018-05-12T19:42:10.023Z,994.68
2018-05-12T19:44:41.996Z,994.62
2018-05-12T19:47:14.294Z,994.62
2018-05-12T19:49:45.985Z,994.60
2018-05-12T19:52:17.964Z,994.58
2018-05-12T19:54:50.549Z,994.60
2018-05-12T19:57:22.675Z,994.60
2018-05-12T19:59:54.947Z,994.67
2018-05-12T20:02:26.391Z,994.66
2018-05-12T20:04:58.013Z,994.75
2018-05-12T20:07:29.522Z,994.71
2018-05-12T20:10:01.147Z,994.71
2018-05-12T20:12:32.991Z,994.71
2018-05-12T20:15:06.296Z,994.67
2018-05-12T20:17:37.768Z,994.70
2018-05-12T20:20:15.968Z,994.66
2018-05-12T20:22:49.009Z,994.76
2018-05-12T20:25:20.617Z,994.84
2018-05-12T20:27:53.702Z,994.80
2018-05-12T20:30:25.229Z,994.80
2018-05-12T20:32:56.780Z,994.76
2018-05-12T20:35:28.657Z,994.77
2018-05-12T20:38:00.644Z,994.72
2018-05-12T20:40:32.101Z,994.76
2018-05-12T20:43:03.695Z,994.74
2018-05-12T20:45:35.274Z,994.72
2018-05-12T20:48:06.833Z,994.69
2018-05-12T20:50:38.571Z,994.71
2018-05-12T20:53:10.114Z,994.67
2018-05-12T20:55:41.588Z,994.66
2018-05-12T20:58:13.103Z,994.65
2018-05-12T21:00:45.613Z,994.66
2018-05-12T21:03:17.116Z,994.61
2018-05-12T21:05:48.685Z,994.63
2018-05-12T21:08:20.165Z,994.65
2018-05-12T21:10:52.611Z,994.59
2018-05-12T21:13:24.960Z,994.58
2018-05-12T21:15:57.623Z,994.59
2018-05-12T21:18:29.230Z,994.61
2018-05-12T21:21:01.710Z,994.62
2018-05-12T21:23:33.387Z,994.64
2018-05-12T21:26:05.033Z,994.60
2018-05-12T21:28:36.564Z,994.59
2018-05-12T21:31:09.169Z,994.56
2018-05-12T21:33:40.662Z,994.53
2018-05-12T21:36:12.227Z,994.56
2018-05-12T21:38:43.701Z,994.57
2018-05-12T21:41:15.183Z,994.54
2018-05-12T21:43:46.866Z,994.54
2018-05-12T21:46:18.748Z,994.50
2018-05-12T21:48:50.338Z,994.51
2018-05-12T21:51:22.182Z,994.50
2018-05-12T21:53:54.703Z,994.46
2018-05-12T21:56:26.192Z,994.53
2018-05-12T21:58:59.729Z,994.48
2018-05-12T22:01:31.755Z,994.48
2018-05-12T22:04:03.424Z,994.52
2018-05-12T22:06:35.684Z,994.47
2018-05-12T22:09:08.232Z,994.53
2018-05-12T22:11:40.637Z,994.51
2018-05-12T22:14:12.251Z,994.48
2018-05-12T22:16:43.743Z,994.46
2018-05-12T22:19:16.575Z,994.47
2018-05-12T22:21:48.066Z,994.40
2018-05-12T22:24:19.670Z,994.37
2018-05-12T22:26:51.614Z,994.38
2018-05-12T22:29:23.900Z,994.38
2018-05-12T22:31:57.719Z,994.33
2018-05-12T22:34:29.805Z,994.35
2018-05-12T22:37:01.936Z,994.38
2018-05-12T22:39:33.637Z,994.36
2018-05-12T22:42:05.850Z,994.24
2018-05-12T22:44:37.621Z,994.18
2018-05-12T22:47:09.216Z,994.16
2018-05-12T22:49:41.131Z,994.15
2018-05-12T22:52:12.974Z,994.07
2018-05-12T22:54:44.639Z,994.08
2018-05-12T22:57:16.134Z,994.02
2018-05-12T22:59:47.625Z,994.01
2018-05-12T23:02:20.184Z,993.94
2018-05-12T23:04:52.071Z,993.93
2018-05-12T23:07:24.223Z,993.90
2018-05-12T23:09:56.274Z,993.92
2018-05-12T23:12:27.744Z,993.86
2018-05-12T23:15:00.697Z,993.90
2018-05-12T23:17:32.148Z,993.88
2018-05-12T23:20:03.669Z,993.89
2018-05-12T23:22:35.468Z,993.86
2018-05-12T23:25:06.947Z,993.87
2018-05-12T23:27:38.355Z,993.84
2018-05-12T23:30:13.526Z,993.88
2018-05-12T23:32:41.908Z,993.78
2018-05-12T23:35:13.341Z,993.76
2018-05-12T23:37:45.233Z,993.71
2018-05-12T23:40:16.640Z,993.71
2018-05-12T23:42:48.134Z,993.71
2018-05-12T23:45:19.898Z,993.72
2018-05-12T23:47:51.307Z,993.66
2018-05-12T23:50:22.904Z,993.69
2018-05-12T23:52:54.745Z,993.65
2018-05-12T23:55:26.262Z,993.58
2018-05-12T23:57:57.972Z,993.55
